KDCA/DCA METAR and TAF weather

Enter ICAO airport designator
Station Type Date Time Source
KDCA METAR 2021/09/20 03:52 UTC NOAA

KDCA 200352Z 07005KT 10SM FEW250 21/16 A3022 RMK AO2 SLP234 T02060156


Station Type Date Time Source
KDCA Decoded METAR 2021/09/20 03:52 UTC NOAA

WASHINGTON NATIONAL AIRPORT , VA, United States (KDCA) 38-51N 077-02W 18M
Sep 19, 2021 - 11:52 PM EDT / 2021.09.20 0352 UTC
Wind: from the ENE (070 degrees) at 6 MPH (5 KT):0
Visibility: 10 mile(s):0
Sky conditions: mostly clear
Temperature: 69.1 F (20.6 C)
Dew Point: 60.1 F (15.6 C)
Relative Humidity: 73%
Pressure (altimeter): 30.22 in. Hg (1023 hPa)
ob: KDCA 200352Z 07005KT 10SM FEW250 21/16 A3022 RMK AO2 SLP234 T02060156
cycle: 4

Station Type Date Time Source
KDCA TAF 2021/09/20 03:58 UTC NOAA

TAF
AMD KDCA 200256Z 2003/2106 05003KT P6SM FEW080 FEW250
FM201400 10008KT P6SM SCT050

Example: see airport list